Time;durP1;ratioP1;P1;durP2;ratioP2;P2;SDS_P1;SDS_P2;PMS_P1;PMS_P2;Temp;Humidity;BMP_temperature;BMP_pressure;BME280_temperature;BME280_humidity;BME280_pressure;Samples;Min_cycle;Max_cycle;Signal;HPM_P1;HPM_P2
2023/03/19 00:00:25;;;;;;;0.15;0.15;;;8.50;99.90;;;;;;5056115;28;20029;-73
2023/03/19 00:02:51;;;;;;;0.13;0.13;;;8.50;99.90;;;;;;5039263;28;20601;-73
2023/03/19 00:05:17;;;;;;;0.13;0.13;;;8.40;99.90;;;;;;5057233;28;20105;-73
2023/03/19 00:07:43;;;;;;;0.10;0.10;;;8.40;99.90;;;;;;5056772;28;20029;-73
2023/03/19 00:10:09;;;;;;;0.10;0.10;;;8.40;99.90;;;;;;5034497;28;20029;-73
2023/03/19 00:12:35;;;;;;;0.10;0.10;;;8.40;99.90;;;;;;5036501;28;20076;-73
2023/03/19 00:15:01;;;;;;;0.20;0.20;;;8.40;99.90;;;;;;5038620;28;20108;-73
2023/03/19 00:17:26;;;;;;;0.20;0.20;;;8.40;99.90;;;;;;5049345;28;20017;-73
2023/03/19 00:19:52;;;;;;;0.20;0.20;;;8.40;99.90;;;;;;5048370;28;20054;-73
2023/03/19 00:22:18;;;;;;;0.10;0.10;;;8.30;99.90;;;;;;5039840;28;20490;-73
2023/03/19 00:24:43;;;;;;;0.10;0.10;;;8.30;99.90;;;;;;5048388;28;20023;-73
2023/03/19 00:27:09;;;;;;;0.10;0.10;;;8.30;99.90;;;;;;5055842;28;20071;-73
2023/03/19 00:29:35;;;;;;;0.20;0.20;;;8.20;99.90;;;;;;5056380;28;20052;-73
2023/03/19 00:32:01;;;;;;;0.20;0.20;;;8.30;99.90;;;;;;5038202;28;20079;-73
2023/03/19 00:34:27;;;;;;;0.20;0.20;;;8.30;99.90;;;;;;5056902;28;20043;-73
2023/03/19 00:36:52;;;;;;;0.20;0.20;;;8.30;99.90;;;;;;5056290;28;20017;-73
2023/03/19 00:39:18;;;;;;;0.20;0.20;;;8.30;99.90;;;;;;5056424;28;20025;-73
2023/03/19 00:41:49;;;;;;;0.10;0.10;;;8.30;99.90;;;;;;5055710;28;20100;-73
2023/03/19 00:44:18;;;;;;;0.10;0.10;;;8.30;99.90;;;;;;5055764;28;20017;-73
2023/03/19 00:46:44;;;;;;;0.10;0.10;;;8.30;99.90;;;;;;5038995;28;20104;-73
2023/03/19 00:49:10;;;;;;;0.20;0.20;;;8.30;99.90;;;;;;5055704;28;20504;-74
2023/03/19 00:51:35;;;;;;;0.20;0.20;;;8.20;99.90;;;;;;5056379;28;20029;-73
2023/03/19 00:54:01;;;;;;;0.10;0.10;;;8.20;99.90;;;;;;5054891;28;20035;-73
2023/03/19 00:56:26;;;;;;;0.10;0.10;;;8.10;99.90;;;;;;5056259;28;20060;-73
2023/03/19 00:58:52;;;;;;;0.20;0.20;;;8.00;99.90;;;;;;5055794;28;20101;-73
2023/03/19 01:01:17;;;;;;;0.10;0.10;;;7.90;99.90;;;;;;5055797;28;20048;-73
2023/03/19 01:03:44;;;;;;;0.13;0.13;;;7.80;99.90;;;;;;5037537;28;20021;-73
2023/03/19 01:06:11;;;;;;;0.20;0.20;;;7.70;99.90;;;;;;5055896;28;20025;-73
2023/03/19 01:08:36;;;;;;;0.20;0.20;;;7.50;99.90;;;;;;5038065;28;20424;-73
2023/03/19 01:11:13;;;;;;;0.10;0.10;;;7.40;99.90;;;;;;5055296;28;20059;-73
2023/03/19 01:13:38;;;;;;;0.20;0.20;;;7.30;99.90;;;;;;5056096;28;20056;-73
2023/03/19 01:16:12;;;;;;;0.20;0.20;;;7.30;99.90;;;;;;5055395;28;20053;-73
2023/03/19 01:18:37;;;;;;;0.20;0.20;;;7.30;99.90;;;;;;5055090;28;20032;-73
2023/03/19 01:21:03;;;;;;;0.10;0.10;;;7.20;99.90;;;;;;5055713;28;20029;-73
2023/03/19 01:23:29;;;;;;;0.20;0.20;;;7.20;99.90;;;;;;5054704;28;20429;-73
2023/03/19 01:25:56;;;;;;;0.20;0.20;;;7.10;99.90;;;;;;5055655;28;20074;-73
2023/03/19 01:28:21;;;;;;;0.10;0.10;;;7.00;99.90;;;;;;5054141;28;20025;-73
2023/03/19 01:30:47;;;;;;;0.20;0.20;;;7.00;99.90;;;;;;5017827;28;20026;-73
2023/03/19 01:33:13;;;;;;;0.20;0.20;;;6.90;99.90;;;;;;5034980;28;20026;-73
2023/03/19 01:35:39;;;;;;;0.10;0.10;;;6.90;99.90;;;;;;5036697;28;20039;-73
2023/03/19 01:38:05;;;;;;;0.20;0.20;;;6.80;99.90;;;;;;5035053;28;20472;-73
2023/03/19 01:40:31;;;;;;;0.10;0.10;;;6.80;99.90;;;;;;5035614;28;20383;-73
2023/03/19 01:43:19;;;;;;;0.20;0.20;;;6.70;99.90;;;;;;5035209;28;20101;-73
2023/03/19 01:45:45;;;;;;;0.20;0.20;;;6.70;99.90;;;;;;5041002;28;20052;-73
2023/03/19 01:48:39;;;;;;;0.10;0.10;;;6.70;99.90;;;;;;5054485;28;20099;-73
2023/03/19 01:51:07;;;;;;;0.10;0.10;;;6.80;99.90;;;;;;5054622;28;20013;-73
2023/03/19 01:53:34;;;;;;;0.20;0.20;;;6.80;99.90;;;;;;5054923;28;20051;-73
2023/03/19 01:56:10;;;;;;;0.20;0.20;;;6.90;99.90;;;;;;5054956;28;20017;-73
2023/03/19 01:58:37;;;;;;;0.10;0.10;;;6.90;99.90;;;;;;5054499;28;20017;-73
2023/03/19 02:01:03;;;;;;;0.20;0.20;;;6.90;99.90;;;;;;5054602;28;20021;-73
2023/03/19 02:03:29;;;;;;;0.20;0.20;;;6.80;99.90;;;;;;5054323;28;20051;-73
2023/03/19 02:05:56;;;;;;;0.20;0.20;;;6.80;99.90;;;;;;5036974;28;20127;-73
2023/03/19 02:08:23;;;;;;;0.20;0.20;;;6.80;99.90;;;;;;5048334;28;20483;-73
2023/03/19 02:10:51;;;;;;;0.10;0.10;;;6.70;99.90;;;;;;5034086;28;20025;-73
2023/03/19 02:13:17;;;;;;;0.10;0.10;;;6.60;99.90;;;;;;5035424;28;20442;-73
2023/03/19 02:15:42;;;;;;;0.20;0.20;;;6.60;99.90;;;;;;5034510;28;20071;-73
2023/03/19 02:18:08;;;;;;;0.20;0.20;;;6.50;99.90;;;;;;5035225;28;20037;-73
2023/03/19 02:20:42;;;;;;;0.20;0.20;;;6.50;99.90;;;;;;5034981;28;20021;-73
2023/03/19 02:23:23;;;;;;;0.15;0.15;;;6.50;99.90;;;;;;5034122;28;20105;-73
2023/03/19 02:26:13;;;;;;;0.20;0.20;;;6.40;99.90;;;;;;5038619;28;20040;-73
2023/03/19 02:28:42;;;;;;;0.20;0.20;;;6.40;99.90;;;;;;5034194;28;20022;-73
2023/03/19 02:31:09;;;;;;;0.20;0.20;;;6.30;99.90;;;;;;5050699;28;20021;-73
2023/03/19 02:33:35;;;;;;;0.17;0.17;;;6.30;99.90;;;;;;5053769;28;20505;-73
2023/03/19 02:36:04;;;;;;;0.20;0.20;;;6.30;99.90;;;;;;5053643;28;20033;-73
2023/03/19 02:38:32;;;;;;;0.20;0.20;;;6.20;99.90;;;;;;5053864;28;20390;-73
2023/03/19 02:41:05;;;;;;;0.20;0.20;;;6.20;99.90;;;;;;5054292;28;20112;-73
2023/03/19 02:43:36;;;;;;;0.20;0.20;;;6.10;99.90;;;;;;5054001;28;20021;-73
2023/03/19 02:46:05;;;;;;;0.20;0.20;;;6.10;99.90;;;;;;5053809;28;20029;-73
2023/03/19 02:48:31;;;;;;;0.15;0.15;;;6.00;99.90;;;;;;5054915;28;20424;-73
2023/03/19 02:50:57;;;;;;;0.15;0.15;;;6.00;99.90;;;;;;5035205;28;20025;-73
2023/03/19 02:53:22;;;;;;;0.20;0.20;;;5.90;99.90;;;;;;5036592;28;20029;-73
2023/03/19 02:55:50;;;;;;;0.20;0.20;;;5.90;99.90;;;;;;5053956;28;20079;-73
2023/03/19 02:58:16;;;;;;;0.15;0.15;;;5.80;99.90;;;;;;5053873;28;20028;-73
2023/03/19 03:00:42;;;;;;;0.10;0.10;;;5.70;99.90;;;;;;5054229;28;20029;-73
2023/03/19 03:03:08;;;;;;;0.20;0.20;;;5.70;99.90;;;;;;5053312;28;20033;-73
2023/03/19 03:05:35;;;;;;;0.10;0.10;;;5.70;99.90;;;;;;5036707;28;20041;-73
2023/03/19 03:08:02;;;;;;;0.20;0.20;;;5.70;99.90;;;;;;5051941;28;20551;-73
2023/03/19 03:10:27;;;;;;;0.20;0.20;;;5.60;99.90;;;;;;5036541;28;20033;-73
2023/03/19 03:12:53;;;;;;;0.20;0.20;;;5.60;99.90;;;;;;5053427;28;20032;-72
2023/03/19 03:15:18;;;;;;;0.17;0.17;;;5.60;99.90;;;;;;5049940;28;20048;-73
2023/03/19 03:17:44;;;;;;;0.20;0.20;;;5.60;99.90;;;;;;5053612;28;20036;-73
2023/03/19 03:20:13;;;;;;;0.20;0.20;;;5.70;99.90;;;;;;5020792;28;20033;-73
2023/03/19 03:22:39;;;;;;;0.13;0.13;;;5.70;99.90;;;;;;5033639;28;20021;-73
2023/03/19 03:25:06;;;;;;;0.20;0.20;;;5.70;99.90;;;;;;5036200;28;20029;-73
2023/03/19 03:27:31;;;;;;;0.20;0.20;;;5.80;99.90;;;;;;5034332;28;20032;-73
2023/03/19 03:29:57;;;;;;;0.20;0.20;;;5.80;99.90;;;;;;5039478;28;20029;-73
2023/03/19 03:32:23;;;;;;;0.10;0.10;;;5.80;99.90;;;;;;5053488;28;20025;-73
2023/03/19 03:34:49;;;;;;;0.20;0.20;;;5.80;99.90;;;;;;5035604;28;20073;-73
2023/03/19 03:37:15;;;;;;;0.20;0.20;;;5.90;99.90;;;;;;5054423;28;20029;-73
2023/03/19 03:39:41;;;;;;;0.20;0.20;;;6.00;99.90;;;;;;5052928;28;20074;-73
2023/03/19 03:42:07;;;;;;;0.10;0.10;;;6.10;99.90;;;;;;5054031;28;20041;-73
2023/03/19 03:44:35;;;;;;;0.20;0.20;;;6.20;99.90;;;;;;5055497;28;20037;-73
2023/03/19 03:47:02;;;;;;;0.20;0.20;;;6.20;99.90;;;;;;5057408;28;20021;-73
2023/03/19 03:49:27;;;;;;;0.20;0.20;;;6.30;99.90;;;;;;5057852;28;20376;-73
2023/03/19 03:51:53;;;;;;;0.20;0.20;;;6.30;99.90;;;;;;5038508;28;20148;-73
2023/03/19 03:54:18;;;;;;;0.10;0.10;;;6.30;99.90;;;;;;5057687;28;20083;-73
2023/03/19 03:56:44;;;;;;;0.10;0.10;;;6.30;99.90;;;;;;5038830;28;20053;-74
2023/03/19 03:59:10;;;;;;;0.10;0.10;;;6.30;99.90;;;;;;5057322;28;20090;-74
2023/03/19 04:01:35;;;;;;;0.20;0.20;;;6.20;99.90;;;;;;5056491;28;20017;-72
2023/03/19 04:04:01;;;;;;;0.20;0.20;;;6.20;99.90;;;;;;5057420;28;20066;-73
2023/03/19 04:06:27;;;;;;;0.15;0.15;;;6.10;99.90;;;;;;5038873;28;20025;-73
2023/03/19 04:08:53;;;;;;;0.20;0.20;;;6.10;99.90;;;;;;5056817;28;20486;-73
2023/03/19 04:11:19;;;;;;;0.20;0.20;;;6.10;99.90;;;;;;5056825;28;20037;-74
2023/03/19 04:13:45;;;;;;;0.20;0.20;;;6.10;99.90;;;;;;5056885;28;20037;-74
2023/03/19 04:16:11;;;;;;;0.20;0.20;;;6.10;99.90;;;;;;5056455;28;20049;-73
2023/03/19 04:18:37;;;;;;;0.20;0.20;;;6.10;99.90;;;;;;5056555;28;20047;-73
2023/03/19 04:21:04;;;;;;;0.17;0.17;;;6.20;99.90;;;;;;5056983;28;20029;-73
2023/03/19 04:23:30;;;;;;;0.20;0.20;;;6.30;99.90;;;;;;5056625;28;20441;-73
2023/03/19 04:26:03;;;;;;;0.10;0.10;;;6.30;99.90;;;;;;5056860;28;20013;-74
2023/03/19 04:28:30;;;;;;;0.20;0.20;;;6.40;99.90;;;;;;5056421;28;20021;-73
2023/03/19 04:31:04;;;;;;;0.20;0.20;;;6.40;99.90;;;;;;5038130;28;20033;-73
2023/03/19 04:33:30;;;;;;;0.20;0.20;;;6.60;99.90;;;;;;5056660;28;20032;-74
2023/03/19 04:35:56;;;;;;;0.20;0.20;;;6.70;99.90;;;;;;5056094;28;20401;-73
2023/03/19 04:38:25;;;;;;;0.20;0.20;;;6.80;99.90;;;;;;5056272;28;20131;-74
2023/03/19 04:40:51;;;;;;;0.20;0.20;;;6.90;99.90;;;;;;5056032;28;20017;-74
2023/03/19 04:43:17;;;;;;;0.20;0.20;;;6.90;99.90;;;;;;5056459;28;20036;-73
2023/03/19 04:45:42;;;;;;;0.20;0.20;;;7.00;99.90;;;;;;5038067;28;20398;-73
2023/03/19 04:48:08;;;;;;;0.20;0.20;;;7.10;99.90;;;;;;5056426;28;20037;-73
2023/03/19 04:50:34;;;;;;;0.20;0.20;;;7.10;99.90;;;;;;5047714;28;20031;-74
2023/03/19 04:53:00;;;;;;;0.10;0.10;;;7.20;99.90;;;;;;5056055;28;20413;-73
2023/03/19 04:55:25;;;;;;;0.20;0.20;;;7.30;99.90;;;;;;5055322;28;20044;-73
2023/03/19 04:57:51;;;;;;;0.20;0.20;;;7.30;99.90;;;;;;5038277;28;20031;-74
2023/03/19 05:00:17;;;;;;;0.20;0.20;;;7.40;99.90;;;;;;5056064;28;20032;-74
2023/03/19 05:02:42;;;;;;;0.20;0.20;;;7.40;99.90;;;;;;5055887;28;20017;-74
2023/03/19 05:05:12;;;;;;;0.20;0.20;;;7.40;99.90;;;;;;5055333;28;20025;-73
2023/03/19 05:07:38;;;;;;;0.20;0.20;;;7.40;99.90;;;;;;5055378;28;20378;-74
2023/03/19 05:10:06;;;;;;;0.20;0.20;;;7.40;99.90;;;;;;5055828;28;20068;-74
2023/03/19 05:12:31;;;;;;;0.10;0.10;;;7.50;99.90;;;;;;5055626;28;20107;-74
2023/03/19 05:14:57;;;;;;;0.10;0.10;;;7.50;99.90;;;;;;5055953;28;20033;-74
2023/03/19 05:17:23;;;;;;;0.20;0.20;;;7.50;99.90;;;;;;5054843;28;20155;-73
2023/03/19 05:19:48;;;;;;;0.10;0.10;;;7.50;99.90;;;;;;5037673;28;20036;-74
2023/03/19 05:22:14;;;;;;;0.20;0.20;;;7.50;99.90;;;;;;5055068;28;20030;-73
2023/03/19 05:24:39;;;;;;;0.20;0.20;;;7.50;99.90;;;;;;5056162;28;20052;-74
2023/03/19 05:27:06;;;;;;;0.10;0.10;;;7.50;99.90;;;;;;5055202;28;20096;-74
2023/03/19 05:29:31;;;;;;;0.10;0.10;;;7.50;99.90;;;;;;5037402;28;20039;-74
2023/03/19 05:31:58;;;;;;;0.15;0.15;;;7.40;99.90;;;;;;5055505;28;20025;-73
2023/03/19 05:34:24;;;;;;;0.20;0.20;;;7.40;99.90;;;;;;5055027;28;20021;-74
2023/03/19 05:36:50;;;;;;;0.10;0.10;;;7.40;99.90;;;;;;5055517;28;20427;-74
2023/03/19 05:39:16;;;;;;;0.20;0.20;;;7.40;99.90;;;;;;5036843;28;20402;-74
2023/03/19 05:41:41;;;;;;;0.10;0.10;;;7.30;99.90;;;;;;5055449;28;20017;-73
2023/03/19 05:44:07;;;;;;;0.20;0.20;;;7.20;99.90;;;;;;5037078;28;20025;-74
2023/03/19 05:46:33;;;;;;;0.10;0.10;;;7.20;99.90;;;;;;5054845;28;20025;-74
2023/03/19 05:48:58;;;;;;;0.10;0.10;;;7.20;99.90;;;;;;5054722;28;20116;-74
2023/03/19 05:51:24;;;;;;;0.20;0.20;;;7.20;99.90;;;;;;5055312;28;20096;-74
2023/03/19 05:53:49;;;;;;;0.20;0.20;;;7.20;99.90;;;;;;5054711;28;20021;-74
2023/03/19 05:56:15;;;;;;;0.20;0.20;;;7.30;99.90;;;;;;5055251;28;20114;-73
2023/03/19 05:58:41;;;;;;;0.10;0.10;;;7.30;99.90;;;;;;5036978;28;20079;-74
2023/03/19 06:01:06;;;;;;;0.20;0.20;;;7.40;99.90;;;;;;5052451;28;20029;-74
2023/03/19 06:03:35;;;;;;;0.10;0.10;;;7.50;99.90;;;;;;5054634;28;20104;-73
2023/03/19 06:06:00;;;;;;;0.20;0.20;;;7.50;99.90;;;;;;5046981;28;20025;-74
2023/03/19 06:08:26;;;;;;;0.20;0.20;;;7.60;99.90;;;;;;5034727;28;20026;-74
2023/03/19 06:10:52;;;;;;;0.20;0.20;;;7.60;99.90;;;;;;5033983;28;20099;-74
2023/03/19 06:13:18;;;;;;;0.10;0.10;;;7.70;99.90;;;;;;5035070;28;20030;-74
2023/03/19 06:15:43;;;;;;;0.20;0.20;;;7.80;99.90;;;;;;5034034;28;20083;-74
2023/03/19 06:18:09;;;;;;;0.10;0.10;;;7.80;99.90;;;;;;5035718;28;20736;-73
2023/03/19 06:20:37;;;;;;;0.10;0.10;;;7.80;99.90;;;;;;5054422;28;20061;-73
2023/03/19 06:23:03;;;;;;;0.10;0.10;;;7.80;99.90;;;;;;5036504;28;20093;-73
2023/03/19 06:25:28;;;;;;;0.20;0.20;;;7.90;99.90;;;;;;5054439;28;20096;-73
2023/03/19 06:27:54;;;;;;;0.20;0.20;;;7.90;99.90;;;;;;5053786;28;20032;-73
2023/03/19 06:30:20;;;;;;;0.20;0.20;;;8.00;99.90;;;;;;5054235;28;20488;-74
2023/03/19 06:32:45;;;;;;;0.20;0.20;;;8.00;99.90;;;;;;5036673;28;20025;-74
2023/03/19 06:35:11;;;;;;;0.17;0.17;;;8.00;99.90;;;;;;5054620;28;20025;-74
2023/03/19 06:37:37;;;;;;;0.10;0.10;;;8.00;99.90;;;;;;5053761;28;20029;-74
2023/03/19 06:40:03;;;;;;;0.20;0.20;;;8.10;99.90;;;;;;5054139;28;20110;-73
2023/03/19 06:42:29;;;;;;;0.10;0.10;;;8.10;99.90;;;;;;5054150;28;20021;-74
2023/03/19 06:44:55;;;;;;;0.20;0.20;;;8.10;99.90;;;;;;5054483;28;20520;-74
2023/03/19 06:47:20;;;;;;;0.10;0.10;;;8.10;99.90;;;;;;5054298;28;20043;-73
2023/03/19 06:49:46;;;;;;;0.20;0.20;;;8.20;99.90;;;;;;5054370;28;20401;-74
2023/03/19 06:52:11;;;;;;;0.10;0.10;;;8.20;99.90;;;;;;5053025;28;20454;-73
2023/03/19 06:54:37;;;;;;;0.20;0.20;;;8.30;99.90;;;;;;5054692;28;20453;-74
2023/03/19 06:57:02;;;;;;;0.10;0.10;;;8.40;99.90;;;;;;5053689;28;20035;-74
2023/03/19 06:59:28;;;;;;;0.20;0.20;;;8.40;99.90;;;;;;5054569;28;20022;-74
2023/03/19 07:01:54;;;;;;;0.10;0.10;;;8.50;99.90;;;;;;5053859;28;20043;-73
2023/03/19 07:04:20;;;;;;;0.20;0.20;;;8.50;99.90;;;;;;5031841;28;20021;-74
2023/03/19 07:06:45;;;;;;;0.10;0.10;;;8.60;99.90;;;;;;5016442;28;20028;-73
2023/03/19 07:09:11;;;;;;;0.10;0.10;;;8.60;99.90;;;;;;5035258;28;20414;-73
2023/03/19 07:11:36;;;;;;;0.10;0.10;;;8.70;99.90;;;;;;5034655;28;20398;-74
2023/03/19 07:14:03;;;;;;;0.10;0.10;;;8.70;99.90;;;;;;5033226;28;20072;-73
2023/03/19 07:16:28;;;;;;;0.10;0.10;;;8.80;99.90;;;;;;5034483;28;20034;-74
2023/03/19 07:18:55;;;;;;;0.10;0.10;;;8.80;99.90;;;;;;5040916;28;20418;-73
2023/03/19 07:21:20;;;;;;;0.20;0.20;;;8.70;99.90;;;;;;5058553;28;20044;-73
2023/03/19 07:23:46;;;;;;;0.10;0.10;;;8.80;99.90;;;;;;5057066;28;20390;-73
2023/03/19 07:26:12;;;;;;;0.15;0.15;;;8.80;99.90;;;;;;5058079;28;20466;-73
2023/03/19 07:28:37;;;;;;;0.10;0.10;;;8.90;99.90;;;;;;5057193;28;20425;-73
2023/03/19 07:31:03;;;;;;;0.15;0.15;;;8.90;99.90;;;;;;5057887;28;20029;-74
2023/03/19 07:33:29;;;;;;;0.20;0.20;;;8.90;99.90;;;;;;5057149;28;20040;-73
2023/03/19 07:35:55;;;;;;;0.10;0.10;;;8.80;99.90;;;;;;5039827;28;20025;-74
2023/03/19 07:38:20;;;;;;;0.10;0.10;;;8.90;99.90;;;;;;5039404;28;20478;-73
2023/03/19 07:40:46;;;;;;;0.17;0.17;;;8.90;99.90;;;;;;5057240;28;20032;-74
2023/03/19 07:43:11;;;;;;;0.17;0.17;;;8.90;99.90;;;;;;5056912;28;20040;-73
2023/03/19 07:45:37;;;;;;;0.10;0.10;;;9.00;99.90;;;;;;5057293;28;20104;-73
2023/03/19 07:48:03;;;;;;;0.10;0.10;;;9.10;99.90;;;;;;5057366;28;20091;-73
2023/03/19 07:50:30;;;;;;;0.10;0.10;;;9.10;99.90;;;;;;5056874;28;20102;-73
2023/03/19 07:52:56;;;;;;;0.10;0.10;;;9.10;99.90;;;;;;5038631;28;20090;-73
2023/03/19 07:55:22;;;;;;;0.10;0.10;;;9.10;99.90;;;;;;5056949;28;20025;-73
2023/03/19 07:57:48;;;;;;;0.10;0.10;;;9.10;99.90;;;;;;5039341;28;20025;-73
2023/03/19 08:00:14;;;;;;;0.10;0.10;;;9.10;99.90;;;;;;5056925;28;20086;-73
2023/03/19 08:02:41;;;;;;;0.10;0.10;;;9.10;99.90;;;;;;5056867;28;20103;-73
2023/03/19 08:05:08;;;;;;;0.10;0.10;;;9.10;99.90;;;;;;5038922;28;20108;-73
2023/03/19 08:07:34;;;;;;;0.10;0.10;;;9.10;99.90;;;;;;5056699;28;20028;-73
2023/03/19 08:10:00;;;;;;;0.20;0.20;;;9.10;99.90;;;;;;5039214;28;20456;-73
2023/03/19 08:12:26;;;;;;;0.20;0.20;;;9.10;99.90;;;;;;5057182;28;20025;-73
2023/03/19 08:14:51;;;;;;;0.10;0.10;;;9.10;99.90;;;;;;5056801;28;20060;-73
2023/03/19 08:17:17;;;;;;;0.10;0.10;;;9.10;99.90;;;;;;5052223;28;20030;-73
2023/03/19 08:19:42;;;;;;;0.10;0.10;;;9.20;99.90;;;;;;5038884;28;20106;-74
2023/03/19 08:22:08;;;;;;;0.20;0.20;;;9.30;99.90;;;;;;5056620;28;20425;-73
2023/03/19 08:24:34;;;;;;;0.20;0.20;;;9.40;99.90;;;;;;5057149;28;20022;-73
2023/03/19 08:26:59;;;;;;;0.10;0.10;;;9.60;99.90;;;;;;5055939;28;20024;-73
2023/03/19 08:29:26;;;;;;;0.10;0.10;;;9.70;99.90;;;;;;5056029;28;20027;-74
2023/03/19 08:31:53;;;;;;;0.10;0.10;;;9.80;99.90;;;;;;5056553;28;20087;-73
2023/03/19 08:34:18;;;;;;;0.10;0.10;;;9.90;99.90;;;;;;5056668;28;20113;-74
2023/03/19 08:36:47;;;;;;;0.10;0.10;;;10.00;99.90;;;;;;5056487;28;20061;-74
2023/03/19 08:39:12;;;;;;;0.10;0.10;;;10.20;99.90;;;;;;5055742;28;20029;-73
2023/03/19 08:41:38;;;;;;;0.10;0.10;;;10.40;99.90;;;;;;5033458;28;20116;-75
2023/03/19 08:44:04;;;;;;;0.17;0.17;;;10.50;99.90;;;;;;5043460;28;20069;-74
2023/03/19 08:46:32;;;;;;;0.10;0.10;;;10.80;99.90;;;;;;5043482;28;20475;-74
2023/03/19 08:48:59;;;;;;;0.10;0.10;;;10.80;99.90;;;;;;5047998;28;20071;-74
2023/03/19 08:51:25;;;;;;;0.10;0.10;;;10.80;99.90;;;;;;5056365;28;20078;-74
2023/03/19 08:53:51;;;;;;;0.10;0.10;;;10.70;99.90;;;;;;5055788;28;20017;-75
2023/03/19 08:56:17;;;;;;;0.10;0.10;;;10.90;99.90;;;;;;5056460;28;20025;-74
2023/03/19 08:58:43;;;;;;;0.10;0.10;;;11.00;99.90;;;;;;5056030;28;20531;-74
2023/03/19 09:01:11;;;;;;;0.10;0.10;;;11.00;99.90;;;;;;5056555;28;20017;-74
2023/03/19 09:03:38;;;;;;;0.10;0.10;;;11.20;99.90;;;;;;5055978;28;20036;-74
2023/03/19 09:06:06;;;;;;;0.00;0.00;;;11.50;99.90;;;;;;5055957;28;20124;-74
2023/03/19 09:08:32;;;;;;;0.10;0.10;;;11.80;99.90;;;;;;5055412;28;20482;-74
2023/03/19 09:10:58;;;;;;;0.10;0.10;;;11.90;99.90;;;;;;5042356;28;20044;-74
2023/03/19 09:13:24;;;;;;;0.10;0.10;;;11.80;99.90;;;;;;5050147;28;20029;-74
2023/03/19 09:15:50;;;;;;;0.10;0.10;;;11.90;99.90;;;;;;5035569;28;20475;-74
2023/03/19 09:18:15;;;;;;;0.10;0.10;;;11.90;99.90;;;;;;5034692;28;20548;-74
2023/03/19 09:20:41;;;;;;;0.10;0.10;;;11.90;99.90;;;;;;5036297;28;20082;-74
2023/03/19 09:23:07;;;;;;;0.10;0.10;;;12.00;99.90;;;;;;5055319;28;20099;-74
2023/03/19 09:25:32;;;;;;;0.10;0.10;;;12.20;99.90;;;;;;5053999;28;20387;-74
2023/03/19 09:27:58;;;;;;;0.10;0.10;;;12.40;99.90;;;;;;5034248;28;20018;-74
2023/03/19 09:30:24;;;;;;;0.20;0.20;;;12.30;99.90;;;;;;5017584;28;20029;-74
2023/03/19 09:32:49;;;;;;;0.10;0.10;;;12.20;99.90;;;;;;5047344;28;20033;-74
2023/03/19 09:35:15;;;;;;;0.10;0.10;;;12.10;99.90;;;;;;5054197;28;20082;-74
2023/03/19 09:37:41;;;;;;;0.10;0.10;;;12.10;99.90;;;;;;5035949;28;20033;-73
2023/03/19 09:40:16;;;;;;;0.10;0.10;;;12.30;99.90;;;;;;5043492;28;20035;-72
2023/03/19 09:42:51;;;;;;;0.20;0.20;;;12.20;99.90;;;;;;5054952;28;20517;-73
2023/03/19 09:45:18;;;;;;;0.10;0.10;;;12.30;99.90;;;;;;5055344;28;20029;-74
2023/03/19 09:47:48;;;;;;;0.20;0.20;;;12.30;99.90;;;;;;5055293;28;20063;-73
2023/03/19 09:50:17;;;;;;;0.17;0.17;;;12.40;99.90;;;;;;5054929;28;20513;-74
2023/03/19 09:52:48;;;;;;;0.10;0.10;;;12.50;99.90;;;;;;5034063;28;20049;-74
2023/03/19 09:55:33;;;;;;;0.10;0.10;;;12.60;99.90;;;;;;5042380;28;20672;-73
2023/03/19 09:57:59;;;;;;;0.10;0.10;;;12.70;99.90;;;;;;5054434;28;20473;-73
2023/03/19 10:00:31;;;;;;;0.10;0.10;;;12.60;99.90;;;;;;5036921;28;20052;-73
2023/03/19 10:03:24;;;;;;;0.10;0.10;;;12.50;99.90;;;;;;5055460;28;20025;-74
2023/03/19 10:06:11;;;;;;;0.20;0.20;;;12.60;99.90;;;;;;5054801;28;20020;-74
2023/03/19 10:09:01;;;;;;;0.20;0.20;;;12.70;99.90;;;;;;5054582;28;20043;-73
2023/03/19 10:11:51;;;;;;;0.20;0.20;;;12.80;99.90;;;;;;5054706;28;20071;-74
2023/03/19 10:14:42;;;;;;;0.20;0.20;;;12.90;99.90;;;;;;5037004;28;20204;-74
2023/03/19 10:17:18;;;;;;;0.20;0.20;;;13.10;99.90;;;;;;5054022;28;20028;-73
2023/03/19 10:19:48;;;;;;;0.10;0.10;;;12.90;99.90;;;;;;5036568;28;20025;-74
2023/03/19 10:22:37;;;;;;;0.10;0.10;;;12.90;99.90;;;;;;5055036;28;20024;-73
2023/03/19 10:25:05;;;;;;;0.10;0.10;;;12.80;99.90;;;;;;5054594;28;20032;-74
2023/03/19 10:27:30;;;;;;;0.15;0.15;;;12.70;99.90;;;;;;5054500;28;20021;-73
2023/03/19 10:29:56;;;;;;;0.10;0.10;;;12.50;99.90;;;;;;5054145;28;20048;-73
2023/03/19 10:32:35;;;;;;;0.10;0.10;;;12.40;99.90;;;;;;5054867;28;20040;-73
2023/03/19 10:35:08;;;;;;;0.10;0.10;;;12.40;99.90;;;;;;5037940;28;20491;-73
2023/03/19 10:37:35;;;;;;;0.10;0.10;;;12.50;99.90;;;;;;5046957;28;20521;-73
2023/03/19 10:40:01;;;;;;;0.10;0.10;;;12.40;99.90;;;;;;5035217;28;20112;-73
2023/03/19 10:43:02;;;;;;;0.10;0.10;;;12.30;99.90;;;;;;5017462;28;20029;-73
2023/03/19 10:45:36;;;;;;;0.10;0.10;;;12.40;99.90;;;;;;5054694;28;20032;-73
2023/03/19 10:48:03;;;;;;;0.20;0.20;;;12.50;99.90;;;;;;5054280;28;20032;-73
2023/03/19 10:50:47;;;;;;;0.10;0.10;;;12.50;99.90;;;;;;5037526;28;20036;-73
2023/03/19 10:53:12;;;;;;;0.20;0.20;;;12.60;99.90;;;;;;5029507;28;20100;-73
2023/03/19 10:55:43;;;;;;;0.20;0.20;;;12.50;99.90;;;;;;5038638;28;20026;-73
2023/03/19 10:58:21;;;;;;;0.10;0.10;;;12.50;99.90;;;;;;5048980;28;20037;-73
2023/03/19 11:00:54;;;;;;;0.10;0.10;;;12.50;99.90;;;;;;5020723;28;20021;-73
2023/03/19 11:03:34;;;;;;;0.20;0.20;;;12.40;99.90;;;;;;5046710;28;20053;-73
2023/03/19 11:06:17;;;;;;;0.20;0.20;;;12.50;99.90;;;;;;5040567;28;20075;-73
2023/03/19 11:09:09;;;;;;;0.20;0.20;;;12.50;99.90;;;;;;5042276;28;20439;-73
2023/03/19 11:11:45;;;;;;;0.10;0.10;;;12.60;99.90;;;;;;5030358;28;20491;-73
2023/03/19 11:14:15;;;;;;;0.10;0.10;;;12.90;99.90;;;;;;5038324;28;20025;-73
2023/03/19 11:16:49;;;;;;;0.20;0.20;;;13.10;99.90;;;;;;5056657;28;20096;-73
2023/03/19 11:19:22;;;;;;;0.20;0.20;;;13.20;99.90;;;;;;5058309;28;20433;-73
2023/03/19 11:22:16;;;;;;;0.20;0.20;;;13.10;99.90;;;;;;5057857;28;20108;-73
2023/03/19 11:24:56;;;;;;;0.20;0.20;;;12.90;99.90;;;;;;5039264;28;20509;-73
2023/03/19 11:27:30;;;;;;;0.10;0.10;;;12.90;99.90;;;;;;5039794;28;20052;-72
2023/03/19 11:29:55;;;;;;;0.10;0.10;;;12.80;99.90;;;;;;5057537;28;20025;-73
2023/03/19 11:33:09;;;;;;;0.20;0.20;;;12.70;99.90;;;;;;5057989;28;20043;-73
2023/03/19 11:35:43;;;;;;;0.10;0.10;;;12.50;99.90;;;;;;5057761;28;20501;-73
2023/03/19 11:38:47;;;;;;;0.13;0.13;;;12.40;99.90;;;;;;5056949;28;20032;-73
2023/03/19 11:41:31;;;;;;;0.10;0.10;;;12.30;99.90;;;;;;5057800;28;20029;-73
2023/03/19 11:44:08;;;;;;;0.10;0.10;;;12.40;99.90;;;;;;5057879;28;20546;-73
2023/03/19 11:46:40;;;;;;;0.13;0.13;;;12.70;99.90;;;;;;5057852;28;20025;-73
2023/03/19 11:49:26;;;;;;;0.10;0.10;;;12.70;99.90;;;;;;5057154;28;20013;-74
2023/03/19 11:52:27;;;;;;;0.10;0.10;;;12.70;99.90;;;;;;5056903;28;20029;-74
2023/03/19 11:55:11;;;;;;;0.20;0.20;;;12.70;99.90;;;;;;5032277;28;20029;-74
2023/03/19 11:58:02;;;;;;;0.20;0.20;;;12.50;99.90;;;;;;5050784;28;20395;-74
2023/03/19 12:00:47;;;;;;;0.20;0.20;;;12.60;99.90;;;;;;5039193;28;20027;-74
2023/03/19 12:03:35;;;;;;;0.20;0.20;;;12.70;99.90;;;;;;5037540;28;20080;-74
2023/03/19 12:06:28;;;;;;;0.10;0.10;;;12.70;99.90;;;;;;5053333;28;20031;-73
2023/03/19 12:09:10;;;;;;;0.20;0.20;;;13.00;99.90;;;;;;5056863;28;20033;-73
2023/03/19 12:11:55;;;;;;;0.20;0.20;;;13.00;99.90;;;;;;5057305;28;20036;-72
2023/03/19 12:14:50;;;;;;;0.10;0.10;;;13.00;99.90;;;;;;5036973;28;20095;-74
2023/03/19 12:17:45;;;;;;;0.10;0.10;;;12.90;99.90;;;;;;5013663;28;20063;-74
2023/03/19 12:20:19;;;;;;;0.10;0.10;;;12.80;99.90;;;;;;5054788;28;20033;-73
2023/03/19 12:23:12;;;;;;;0.10;0.10;;;12.70;99.90;;;;;;5056526;28;20021;-74
2023/03/19 12:25:58;;;;;;;0.20;0.20;;;12.60;99.90;;;;;;5056363;28;20087;-74
2023/03/19 12:28:40;;;;;;;0.20;0.20;;;12.70;99.90;;;;;;5056627;28;20021;-73
2023/03/19 12:31:35;;;;;;;0.20;0.20;;;12.80;99.90;;;;;;5055020;28;20029;-73
2023/03/19 12:34:30;;;;;;;0.10;0.10;;;12.70;99.90;;;;;;5049051;28;20056;-73
2023/03/19 12:37:13;;;;;;;0.20;0.20;;;12.60;99.90;;;;;;5051601;28;20029;-73
2023/03/19 12:39:49;;;;;;;0.10;0.10;;;12.50;99.90;;;;;;5037334;28;20026;-73
2023/03/19 12:42:18;;;;;;;0.10;0.10;;;12.60;99.90;;;;;;5055200;28;20103;-73
2023/03/19 12:44:53;;;;;;;0.20;0.20;;;12.60;99.90;;;;;;5050345;28;20021;-74
2023/03/19 12:47:18;;;;;;;0.20;0.20;;;12.60;99.90;;;;;;5036621;28;20029;-73
2023/03/19 12:49:57;;;;;;;0.15;0.15;;;12.70;99.90;;;;;;5035964;28;20029;-73
2023/03/19 12:52:38;;;;;;;0.20;0.20;;;12.70;99.90;;;;;;5043306;28;20036;-73
2023/03/19 12:55:35;;;;;;;0.20;0.20;;;12.70;99.90;;;;;;5037837;28;20175;-74
2023/03/19 12:58:21;;;;;;;0.10;0.10;;;12.60;99.90;;;;;;5037715;28;20021;-71
2023/03/19 13:01:07;;;;;;;0.10;0.10;;;12.60;99.90;;;;;;5056165;28;20441;-73
2023/03/19 13:03:39;;;;;;;0.10;0.10;;;13.10;99.90;;;;;;5056176;28;20021;-74
2023/03/19 13:06:36;;;;;;;0.20;0.20;;;13.60;99.90;;;;;;5056036;28;20040;-72